createdAt,value
2022-10-01T00:01:58.670Z,7.97
2022-10-01T00:04:00.514Z,7.40
2022-10-01T00:06:04.154Z,8.38
2022-10-01T00:08:05.758Z,7.75
2022-10-01T00:10:09.849Z,7.28
2022-10-01T00:12:11.381Z,7.40
2022-10-01T00:14:12.842Z,6.57
2022-10-01T00:18:16.813Z,6.90
2022-10-01T00:20:19.339Z,7.32
2022-10-01T00:22:20.837Z,7.00
2022-10-01T00:26:28.038Z,7.05
2022-10-01T00:28:29.575Z,6.95
2022-10-01T00:32:32.842Z,6.85
2022-10-01T00:34:34.371Z,6.95
2022-10-01T00:38:38.367Z,10.15
2022-10-01T00:40:39.895Z,7.38
2022-10-01T00:44:44.499Z,8.80
2022-10-01T00:46:46.591Z,6.80
2022-10-01T00:48:55.594Z,6.93
2022-10-01T00:50:58.354Z,6.30
2022-10-01T00:53:02.678Z,6.75
2022-10-01T00:55:10.242Z,7.85
2022-10-01T00:57:14.810Z,5.93
2022-10-01T00:59:17.993Z,6.85
2022-10-01T01:01:19.896Z,6.45
2022-10-01T01:03:21.809Z,6.25
2022-10-01T01:05:23.556Z,7.90
2022-10-01T01:07:26.185Z,7.35
2022-10-01T01:09:29.959Z,6.75
2022-10-01T01:11:43.899Z,6.38
2022-10-01T01:13:56.793Z,6.63
2022-10-01T01:16:06.316Z,7.13
2022-10-01T01:18:13.728Z,7.07
2022-10-01T01:20:38.186Z,6.70
2022-10-01T01:22:46.831Z,6.72
2022-10-01T01:24:52.283Z,6.47
2022-10-01T01:27:13.789Z,6.47
2022-10-01T01:29:22.148Z,6.55
2022-10-01T01:31:27.854Z,6.70
2022-10-01T01:33:33.504Z,6.28
2022-10-01T01:35:40.553Z,6.05
2022-10-01T01:37:50.288Z,7.80
2022-10-01T01:39:55.158Z,7.65
2022-10-01T01:42:02.377Z,6.32
2022-10-01T01:44:08.530Z,6.82
2022-10-01T01:46:14.490Z,7.45
2022-10-01T01:48:16.005Z,6.28
2022-10-01T01:52:19.838Z,6.95
2022-10-01T01:54:21.401Z,6.38
2022-10-01T01:56:23.524Z,7.40
2022-10-01T01:58:25.421Z,6.50
2022-10-01T02:00:26.924Z,8.30
2022-10-01T02:04:37.100Z,7.40
2022-10-01T02:06:55.979Z,6.70
2022-10-01T02:09:07.123Z,8.75
2022-10-01T02:11:18.723Z,6.85
2022-10-01T02:13:29.637Z,6.88
2022-10-01T02:15:41.120Z,6.57
2022-10-01T02:17:53.957Z,6.55
2022-10-01T02:19:59.051Z,6.63
2022-10-01T02:22:03.130Z,7.70
2022-10-01T02:24:10.103Z,7.22
2022-10-01T02:26:16.223Z,7.60
2022-10-01T02:28:22.823Z,6.60
2022-10-01T02:30:24.893Z,6.55
2022-10-01T02:32:30.111Z,6.80
2022-10-01T02:34:33.813Z,7.20
2022-10-01T02:36:37.515Z,6.82
2022-10-01T02:38:41.936Z,7.50
2022-10-01T02:40:46.597Z,7.20
2022-10-01T02:42:52.426Z,7.50
2022-10-01T02:44:55.841Z,6.97
2022-10-01T02:47:02.827Z,7.78
2022-10-01T02:49:04.832Z,6.88
2022-10-01T02:51:29.304Z,7.18
2022-10-01T02:53:37.344Z,6.90
2022-10-01T02:55:41.737Z,7.05
2022-10-01T02:57:43.474Z,7.15
2022-10-01T02:59:45.027Z,7.25
2022-10-01T03:03:47.940Z,7.03
2022-10-01T03:07:52.159Z,6.85
2022-10-01T03:09:53.923Z,7.18
2022-10-01T03:11:55.394Z,6.70
2022-10-01T03:15:58.623Z,6.30
2022-10-01T03:18:00.146Z,6.22
2022-10-01T03:20:01.941Z,6.65
2022-10-01T03:24:06.660Z,6.32
2022-10-01T03:26:08.193Z,6.90
2022-10-01T03:30:11.997Z,6.43
2022-10-01T03:32:17.597Z,6.35
2022-10-01T03:34:19.416Z,5.93
2022-10-01T03:36:20.944Z,6.70
2022-10-01T03:40:25.148Z,6.50
2022-10-01T03:42:26.640Z,6.13
2022-10-01T03:46:29.702Z,5.63
2022-10-01T03:48:31.187Z,5.95
2022-10-01T03:52:34.084Z,5.90
2022-10-01T03:56:38.694Z,5.72
2022-10-01T03:58:40.302Z,6.15
2022-10-01T04:00:41.789Z,6.22
2022-10-01T04:04:45.026Z,5.70
2022-10-01T04:08:47.988Z,5.70
2022-10-01T04:10:49.850Z,5.95
2022-10-01T04:12:52.653Z,5.90
2022-10-01T04:14:54.178Z,6.10
2022-10-01T04:18:56.996Z,5.50
2022-10-01T04:23:00.336Z,8.23
2022-10-01T04:25:01.852Z,5.90
2022-10-01T04:29:06.240Z,6.03
2022-10-01T04:31:07.782Z,6.30
2022-10-01T04:33:12.103Z,5.75
2022-10-01T04:35:13.757Z,5.70
2022-10-01T04:37:15.330Z,6.18
2022-10-01T04:39:16.836Z,5.30
2022-10-01T04:43:19.761Z,5.43
2022-10-01T04:47:24.276Z,5.97
2022-10-01T04:49:25.739Z,5.65
2022-10-01T04:53:28.630Z,5.75
2022-10-01T04:57:31.625Z,5.38
2022-10-01T04:59:33.207Z,5.50
2022-10-01T05:01:36.640Z,5.47
2022-10-01T05:03:38.483Z,6.05
2022-10-01T05:07:41.722Z,4.97
2022-10-01T05:09:43.272Z,5.10
2022-10-01T05:11:44.878Z,5.05
2022-10-01T05:13:46.398Z,5.30
2022-10-01T05:17:51.442Z,6.15
2022-10-01T05:19:52.905Z,5.53
2022-10-01T05:23:55.766Z,5.30
2022-10-01T05:28:03.039Z,4.90
2022-10-01T05:30:05.450Z,4.97
2022-10-01T05:32:07.567Z,5.22
2022-10-01T05:34:10.731Z,5.63
2022-10-01T05:36:12.268Z,4.90
2022-10-01T05:40:15.503Z,4.38
2022-10-01T05:42:17.032Z,4.50
2022-10-01T05:44:18.530Z,5.03
2022-10-01T05:48:21.329Z,5.32
2022-10-01T05:52:25.669Z,4.40
2022-10-01T05:56:28.586Z,4.20
2022-10-01T06:00:32.767Z,4.30
2022-10-01T06:02:34.364Z,4.57
2022-10-01T06:04:40.927Z,4.63
2022-10-01T06:06:44.084Z,4.38
2022-10-01T06:08:45.536Z,4.80
2022-10-01T06:12:48.847Z,4.28
2022-10-01T06:14:50.389Z,4.60
2022-10-01T06:16:53.431Z,4.63
2022-10-01T06:18:54.920Z,4.47
2022-10-01T06:23:00.885Z,4.47
2022-10-01T06:25:02.386Z,4.10
2022-10-01T06:29:08.623Z,9.05
2022-10-01T06:31:10.157Z,4.68
2022-10-01T06:35:14.040Z,5.18
2022-10-01T06:37:15.567Z,4.72
2022-10-01T06:39:18.374Z,4.95
2022-10-01T06:41:19.936Z,4.28
2022-10-01T06:43:21.682Z,4.50
2022-10-01T06:45:23.331Z,4.30
2022-10-01T06:47:24.841Z,4.60
2022-10-01T06:49:26.367Z,5.13
2022-10-01T06:51:27.820Z,4.72
2022-10-01T06:55:33.879Z,4.57
2022-10-01T06:57:35.374Z,4.57
2022-10-01T07:01:38.658Z,4.53
2022-10-01T07:03:40.438Z,4.97
2022-10-01T07:07:43.785Z,5.18
2022-10-01T07:09:45.255Z,3.90
2022-10-01T07:11:48.170Z,5.82
2022-10-01T07:13:54.354Z,7.88
2022-10-01T07:15:56.317Z,4.47
2022-10-01T07:17:57.834Z,4.40
2022-10-01T07:19:59.338Z,5.32
2022-10-01T07:22:00.890Z,4.25
2022-10-01T07:24:02.409Z,4.97
2022-10-01T07:26:05.098Z,4.70
2022-10-01T07:28:11.699Z,5.20
2022-10-01T07:30:13.198Z,4.45
2022-10-01T07:34:16.029Z,4.93
2022-10-01T07:36:17.531Z,4.65
2022-10-01T07:40:20.493Z,4.40
2022-10-01T07:42:21.988Z,4.28
2022-10-01T07:46:26.158Z,4.10
2022-10-01T07:50:32.131Z,4.15
2022-10-01T07:52:33.613Z,4.57
2022-10-01T07:56:36.457Z,4.35
2022-10-01T07:58:37.968Z,3.70
2022-10-01T08:02:46.890Z,4.30
2022-10-01T08:04:48.407Z,4.00
2022-10-01T08:08:51.214Z,4.00
2022-10-01T08:12:59.664Z,4.65
2022-10-01T08:15:01.156Z,4.65
2022-10-01T08:19:06.176Z,8.27
2022-10-01T08:21:08.091Z,4.60
2022-10-01T08:23:11.906Z,4.55
2022-10-01T08:25:13.431Z,4.78
2022-10-01T08:27:14.909Z,5.60
2022-10-01T08:29:17.212Z,4.57
2022-10-01T08:31:18.818Z,4.30
2022-10-01T08:33:22.487Z,6.90
2022-10-01T08:35:24.770Z,4.50
2022-10-01T08:37:27.435Z,4.93
2022-10-01T08:39:28.889Z,4.70
2022-10-01T08:43:40.678Z,4.70
2022-10-01T08:45:46.214Z,4.32
2022-10-01T08:47:55.680Z,4.85
2022-10-01T08:50:02.856Z,3.75
2022-10-01T08:52:15.580Z,4.68
2022-10-01T08:54:26.148Z,4.25
2022-10-01T08:56:31.015Z,4.10
2022-10-01T08:58:41.253Z,4.03
2022-10-01T09:00:45.215Z,4.32
2022-10-01T09:02:47.386Z,4.00
2022-10-01T09:04:51.897Z,3.72
2022-10-01T09:07:02.538Z,3.72
2022-10-01T09:09:27.285Z,3.40
2022-10-01T09:11:41.260Z,3.85
2022-10-01T09:13:58.241Z,3.60
2022-10-01T09:16:07.389Z,3.22
2022-10-01T09:18:17.710Z,3.50
2022-10-01T09:20:26.038Z,3.55
2022-10-01T09:22:37.155Z,3.10
2022-10-01T09:24:43.131Z,5.60
2022-10-01T09:26:48.140Z,3.60
2022-10-01T09:28:52.123Z,3.40
2022-10-01T09:30:57.546Z,3.40
2022-10-01T09:33:03.713Z,3.05
2022-10-01T09:35:29.175Z,2.65
2022-10-01T09:37:41.697Z,2.63
2022-10-01T09:39:54.493Z,2.53
2022-10-01T09:41:56.123Z,2.40
2022-10-01T09:43:57.632Z,2.67
2022-10-01T09:45:59.736Z,2.20
2022-10-01T09:48:13.494Z,2.30
2022-10-01T09:50:20.158Z,2.40
2022-10-01T09:52:24.575Z,2.30
2022-10-01T09:54:32.445Z,2.08
2022-10-01T09:56:38.142Z,2.20
2022-10-01T09:58:42.732Z,2.17
2022-10-01T10:00:45.320Z,2.30
2022-10-01T10:02:49.569Z,2.33
2022-10-01T10:04:59.910Z,2.17
2022-10-01T10:07:03.542Z,2.30
2022-10-01T10:09:05.107Z,2.60
2022-10-01T10:11:10.148Z,2.42
2022-10-01T10:13:19.639Z,2.67
2022-10-01T10:15:22.839Z,2.60
2022-10-01T10:17:24.583Z,2.83
2022-10-01T10:19:28.204Z,3.38
2022-10-01T10:21:31.780Z,2.88
2022-10-01T10:23:33.484Z,2.88
2022-10-01T10:25:35.359Z,3.30
2022-10-01T10:27:38.252Z,2.92
2022-10-01T10:29:39.695Z,3.58
2022-10-01T10:33:49.763Z,2.90
2022-10-01T10:36:04.852Z,2.92
2022-10-01T10:38:06.790Z,3.15
2022-10-01T10:40:15.683Z,3.35
2022-10-01T10:42:18.023Z,3.03
2022-10-01T10:44:22.603Z,3.30
2022-10-01T10:46:27.838Z,3.40
2022-10-01T10:48:33.053Z,3.65
2022-10-01T10:50:38.372Z,3.50
2022-10-01T10:52:43.744Z,3.55
2022-10-01T10:54:48.594Z,4.07
2022-10-01T10:56:58.930Z,3.70
2022-10-01T10:59:06.811Z,4.05
2022-10-01T11:01:13.729Z,3.88
2022-10-01T11:03:18.457Z,3.80
2022-10-01T11:05:22.644Z,3.55
2022-10-01T11:07:26.239Z,3.60
2022-10-01T11:09:39.022Z,4.03
2022-10-01T11:11:49.761Z,3.92
2022-10-01T11:14:07.166Z,4.18
2022-10-01T11:16:28.385Z,3.78
2022-10-01T11:18:41.083Z,3.85
2022-10-01T11:20:50.520Z,4.00
2022-10-01T11:23:03.005Z,3.70
2022-10-01T11:25:18.548Z,3.67
2022-10-01T11:27:27.405Z,3.45
2022-10-01T11:29:39.318Z,3.72
2022-10-01T11:31:50.766Z,4.00
2022-10-01T11:34:04.294Z,3.30
2022-10-01T11:36:16.655Z,3.15
2022-10-01T11:38:37.506Z,4.25
2022-10-01T11:40:42.605Z,3.20
2022-10-01T11:42:46.436Z,3.45
2022-10-01T11:44:56.345Z,3.80
2022-10-01T11:47:08.435Z,3.55
2022-10-01T11:49:27.321Z,3.22
2022-10-01T11:51:36.410Z,3.35
2022-10-01T11:53:41.424Z,3.55
2022-10-01T11:55:47.580Z,3.28
2022-10-01T11:57:54.774Z,3.50
2022-10-01T12:00:02.375Z,3.40
2022-10-01T12:02:20.040Z,3.75
2022-10-01T12:04:31.067Z,3.15
2022-10-01T12:06:37.624Z,3.10
2022-10-01T12:08:46.359Z,2.90
2022-10-01T12:10:52.078Z,3.30
2022-10-01T12:13:00.060Z,2.83
2022-10-01T12:15:09.368Z,2.70
2022-10-01T12:17:18.966Z,3.10
2022-10-01T12:19:25.227Z,2.75
2022-10-01T12:21:30.022Z,2.45
2022-10-01T12:23:41.404Z,2.55
2022-10-01T12:25:51.064Z,2.92
2022-10-01T12:28:00.491Z,2.65
2022-10-01T12:30:05.642Z,3.08
2022-10-01T12:32:20.732Z,3.00
2022-10-01T12:34:33.065Z,3.22
2022-10-01T12:36:45.381Z,3.28
2022-10-01T12:39:03.337Z,3.95
2022-10-01T12:41:15.557Z,3.45
2022-10-01T12:43:51.374Z,3.67
2022-10-01T12:46:00.401Z,3.15
2022-10-01T12:48:13.261Z,2.90
2022-10-01T12:50:24.575Z,2.95
2022-10-01T12:52:37.217Z,3.08
2022-10-01T12:54:59.464Z,3.28
2022-10-01T12:57:14.709Z,2.90
2022-10-01T12:59:32.749Z,2.80
2022-10-01T13:01:46.095Z,4.03
2022-10-01T13:04:20.464Z,2.97
2022-10-01T13:06:33.307Z,2.85
2022-10-01T13:08:47.863Z,2.63
2022-10-01T13:10:58.850Z,3.30
2022-10-01T13:13:05.422Z,3.17
2022-10-01T13:15:13.407Z,3.08
2022-10-01T13:17:21.021Z,3.00
2022-10-01T13:19:30.772Z,2.88
2022-10-01T13:21:48.998Z,2.88
2022-10-01T13:23:56.072Z,3.15
2022-10-01T13:26:07.549Z,2.83
2022-10-01T13:28:16.264Z,3.28
2022-10-01T13:30:21.612Z,3.75
2022-10-01T13:32:29.186Z,3.00
2022-10-01T13:34:40.599Z,3.38
2022-10-01T13:36:42.115Z,4.88
2022-10-01T13:38:45.236Z,2.78
2022-10-01T13:40:57.398Z,2.85
2022-10-01T13:43:02.001Z,2.35
2022-10-01T13:45:06.647Z,2.90
2022-10-01T13:47:08.434Z,2.38
2022-10-01T13:49:21.158Z,2.40
2022-10-01T13:51:34.548Z,2.60
2022-10-01T13:53:38.763Z,2.50
2022-10-01T13:55:42.124Z,2.65
2022-10-01T13:57:43.613Z,2.63
2022-10-01T13:59:45.337Z,2.80
2022-10-01T14:01:46.870Z,2.30
2022-10-01T14:03:55.444Z,2.58
2022-10-01T14:05:58.545Z,2.90
2022-10-01T14:08:15.769Z,2.17
2022-10-01T14:10:18.823Z,1.92
2022-10-01T14:12:24.972Z,2.60
2022-10-01T14:14:32.661Z,2.17
2022-10-01T14:18:40.569Z,2.25
2022-10-01T14:20:53.478Z,2.50
2022-10-01T14:23:07.899Z,2.30
2022-10-01T14:25:23.818Z,2.67
2022-10-01T14:27:33.028Z,2.40
2022-10-01T14:29:46.088Z,1.90
2022-10-01T14:31:59.687Z,2.75
2022-10-01T14:34:29.647Z,2.33
2022-10-01T14:36:34.144Z,2.28
2022-10-01T14:38:37.432Z,1.95
2022-10-01T14:40:40.954Z,2.58
2022-10-01T14:42:42.504Z,2.40
2022-10-01T14:44:45.679Z,1.75
2022-10-01T14:46:47.302Z,2.00
2022-10-01T14:48:56.970Z,2.38
2022-10-01T14:51:00.183Z,1.70
2022-10-01T14:53:02.079Z,2.13
2022-10-01T14:55:07.108Z,1.48
2022-10-01T14:57:11.155Z,2.25
2022-10-01T14:59:20.002Z,1.50
2022-10-01T15:01:23.402Z,1.90
2022-10-01T15:03:25.071Z,1.67
2022-10-01T15:05:28.725Z,1.88
2022-10-01T15:07:35.104Z,1.52
2022-10-01T15:09:36.758Z,1.40
2022-10-01T15:11:44.211Z,1.38
2022-10-01T15:13:49.152Z,1.60
2022-10-01T15:15:51.719Z,1.60
2022-10-01T15:17:53.277Z,2.30
2022-10-01T15:19:56.510Z,1.52
2022-10-01T15:22:00.668Z,1.20
2022-10-01T15:24:04.480Z,1.65
2022-10-01T15:26:10.713Z,1.65
2022-10-01T15:28:26.811Z,1.30
2022-10-01T15:30:28.452Z,1.90
2022-10-01T15:32:30.033Z,1.30
2022-10-01T15:34:32.443Z,1.30
2022-10-01T15:36:35.034Z,1.75
2022-10-01T15:38:37.252Z,1.20
2022-10-01T15:40:41.162Z,1.23
2022-10-01T15:43:12.607Z,1.65
2022-10-01T15:45:25.454Z,1.58
2022-10-01T15:47:32.729Z,2.33
2022-10-01T15:49:34.165Z,1.95
2022-10-01T15:53:37.763Z,1.20
2022-10-01T15:55:42.546Z,2.20
2022-10-01T15:57:44.897Z,1.60
2022-10-01T15:59:48.616Z,1.70
2022-10-01T16:01:51.631Z,1.70
2022-10-01T16:03:55.986Z,1.20
2022-10-01T16:05:58.657Z,1.20
2022-10-01T16:08:00.436Z,1.23
2022-10-01T16:10:14.832Z,1.25
2022-10-01T16:12:20.859Z,1.27
2022-10-01T16:14:29.294Z,1.10
2022-10-01T16:16:31.019Z,1.40
2022-10-01T16:18:34.031Z,1.27
2022-10-01T16:20:38.669Z,1.38
2022-10-01T16:22:40.299Z,1.27
2022-10-01T16:24:43.889Z,1.38
2022-10-01T16:26:46.450Z,3.33
2022-10-01T16:28:53.719Z,3.38
2022-10-01T16:30:55.596Z,5.45
2022-10-01T16:32:59.131Z,3.10
2022-10-01T16:35:19.261Z,4.65
2022-10-01T16:37:20.755Z,2.97
2022-10-01T16:39:22.233Z,3.33
2022-10-01T16:41:26.725Z,3.08
2022-10-01T16:43:28.428Z,2.20
2022-10-01T16:45:36.291Z,3.63
2022-10-01T16:47:41.620Z,3.30
2022-10-01T16:49:43.581Z,2.40
2022-10-01T16:51:51.830Z,2.40
2022-10-01T16:53:54.681Z,2.30
2022-10-01T16:55:56.297Z,4.80
2022-10-01T16:57:58.085Z,2.60
2022-10-01T16:59:59.902Z,2.30
2022-10-01T17:02:01.552Z,2.38
2022-10-01T17:04:03.119Z,2.97
2022-10-01T17:06:04.672Z,2.33
2022-10-01T17:08:07.546Z,2.10
2022-10-01T17:10:09.184Z,5.53
2022-10-01T17:12:10.759Z,4.45
2022-10-01T17:14:15.910Z,2.63
2022-10-01T17:16:19.448Z,2.15
2022-10-01T17:18:23.021Z,1.80
2022-10-01T17:20:25.905Z,2.20
2022-10-01T17:22:27.418Z,2.35
2022-10-01T17:24:30.237Z,2.00
2022-10-01T17:26:32.007Z,1.88
2022-10-01T17:28:34.355Z,2.03
2022-10-01T17:30:39.590Z,2.67
2022-10-01T17:32:41.333Z,2.83
2022-10-01T17:34:42.793Z,4.40
2022-10-01T17:36:44.260Z,2.88
2022-10-01T17:38:45.781Z,2.83
2022-10-01T17:40:51.818Z,2.10
2022-10-01T17:42:57.210Z,5.25
2022-10-01T17:44:58.748Z,3.40
2022-10-01T17:47:00.422Z,3.50
2022-10-01T17:49:01.944Z,3.65
2022-10-01T17:51:05.533Z,6.20
2022-10-01T17:53:07.063Z,4.03
2022-10-01T17:55:09.273Z,4.38
2022-10-01T17:57:12.957Z,3.97
2022-10-01T17:59:14.496Z,4.20
2022-10-01T18:01:19.069Z,4.68
2022-10-01T18:03:20.585Z,6.65
2022-10-01T18:05:22.239Z,4.18
2022-10-01T18:07:24.710Z,4.10
2022-10-01T18:09:26.623Z,3.20
2022-10-01T18:11:28.625Z,2.92
2022-10-01T18:13:32.740Z,3.20
2022-10-01T18:15:34.235Z,2.70
2022-10-01T18:17:36.793Z,2.25
2022-10-01T18:19:54.236Z,5.22
2022-10-01T18:21:56.747Z,2.25
2022-10-01T18:24:03.988Z,1.95
2022-10-01T18:26:06.855Z,1.77
2022-10-01T18:28:08.424Z,1.80
2022-10-01T18:30:12.120Z,1.90
2022-10-01T18:32:17.163Z,2.67
2022-10-01T18:34:26.699Z,1.80
2022-10-01T18:36:41.722Z,2.40
2022-10-01T18:38:43.310Z,1.92
2022-10-01T18:40:56.675Z,2.15
2022-10-01T18:43:06.245Z,1.80
2022-10-01T18:45:16.152Z,2.58
2022-10-01T18:47:26.572Z,2.28
2022-10-01T18:49:52.905Z,1.65
2022-10-01T18:52:10.577Z,1.70
2022-10-01T18:54:26.931Z,1.50
2022-10-01T18:56:31.362Z,1.83
2022-10-01T18:58:46.823Z,2.22
2022-10-01T19:01:00.522Z,2.15
2022-10-01T19:03:31.100Z,2.55
2022-10-01T19:05:53.709Z,2.00
2022-10-01T19:08:06.725Z,2.58
2022-10-01T19:10:18.403Z,2.63
2022-10-01T19:12:37.057Z,1.90
2022-10-01T19:14:53.014Z,2.40
2022-10-01T19:17:08.143Z,1.70
2022-10-01T19:19:21.013Z,2.35
2022-10-01T19:21:29.431Z,1.80
2022-10-01T19:24:03.394Z,1.90
2022-10-01T19:26:13.291Z,1.85
2022-10-01T19:28:34.452Z,1.65
2022-10-01T19:30:45.529Z,1.90
2022-10-01T19:32:56.492Z,1.80
2022-10-01T19:35:02.990Z,1.83
2022-10-01T19:37:10.693Z,3.53
2022-10-01T19:41:24.340Z,2.00
2022-10-01T19:43:30.069Z,1.80
2022-10-01T19:45:39.715Z,1.80
2022-10-01T19:47:45.781Z,1.90
2022-10-01T19:49:52.295Z,2.28
2022-10-01T19:51:57.974Z,1.60
2022-10-01T19:54:01.023Z,2.03
2022-10-01T19:56:03.380Z,3.67
2022-10-01T19:58:14.235Z,1.90
2022-10-01T20:00:18.040Z,1.95
2022-10-01T20:02:31.329Z,2.20
2022-10-01T20:04:37.415Z,2.42
2022-10-01T20:06:43.976Z,1.60
2022-10-01T20:08:50.392Z,2.00
2022-10-01T20:10:54.805Z,1.67
2022-10-01T20:13:15.280Z,1.77
2022-10-01T20:17:29.460Z,2.22
2022-10-01T20:19:39.448Z,1.92
2022-10-01T20:21:50.808Z,1.83
2022-10-01T20:23:57.453Z,2.15
2022-10-01T20:26:08.216Z,1.60
2022-10-01T20:28:19.483Z,1.65
2022-10-01T20:30:22.380Z,1.85
2022-10-01T20:32:30.997Z,1.80
2022-10-01T20:34:40.843Z,1.90
2022-10-01T20:36:48.998Z,1.88
2022-10-01T20:38:55.545Z,1.83
2022-10-01T20:40:58.493Z,2.75
2022-10-01T20:43:04.459Z,1.80
2022-10-01T20:45:14.516Z,4.95
2022-10-01T20:47:21.796Z,1.55
2022-10-01T20:49:29.900Z,1.77
2022-10-01T20:51:35.805Z,2.72
2022-10-01T20:53:44.802Z,1.92
2022-10-01T20:55:50.305Z,1.90
2022-10-01T20:57:55.258Z,2.17
2022-10-01T21:00:02.721Z,1.60
2022-10-01T21:02:16.269Z,1.88
2022-10-01T21:04:25.733Z,4.43
2022-10-01T21:06:33.254Z,8.73
2022-10-01T21:10:47.898Z,2.13
2022-10-01T21:12:57.743Z,19.00
2022-10-01T21:15:01.828Z,7.90
2022-10-01T21:17:17.091Z,1.83
2022-10-01T21:19:30.930Z,2.20
2022-10-01T21:21:44.659Z,2.80
2022-10-01T21:24:00.521Z,1.92
2022-10-01T21:26:14.842Z,2.33
2022-10-01T21:28:28.583Z,2.13
2022-10-01T21:30:36.339Z,3.67
2022-10-01T21:33:05.839Z,2.30
2022-10-01T21:35:19.685Z,2.35
2022-10-01T21:37:29.308Z,2.20
2022-10-01T21:39:38.132Z,2.00
2022-10-01T21:41:55.084Z,1.65
2022-10-01T21:44:21.830Z,1.85
2022-10-01T21:46:29.554Z,1.80
2022-10-01T21:48:39.359Z,2.40
2022-10-01T21:50:51.358Z,2.22
2022-10-01T21:53:10.018Z,3.78
2022-10-01T21:55:39.412Z,3.38
2022-10-01T21:57:53.270Z,2.80
2022-10-01T22:00:11.984Z,2.25
2022-10-01T22:02:28.056Z,2.35
2022-10-01T22:04:36.250Z,2.10
2022-10-01T22:06:45.819Z,2.70
2022-10-01T22:09:00.195Z,2.25
2022-10-01T22:11:09.943Z,2.33
2022-10-01T22:13:23.417Z,2.95
2022-10-01T22:15:29.579Z,1.80
2022-10-01T22:17:33.452Z,2.00
2022-10-01T22:19:39.027Z,2.10
2022-10-01T22:21:43.266Z,12.25
2022-10-01T22:23:52.585Z,11.70
2022-10-01T22:25:58.286Z,2.15
2022-10-01T22:28:05.927Z,5.88
2022-10-01T22:30:12.616Z,2.63
2022-10-01T22:32:16.830Z,4.03
2022-10-01T22:34:22.510Z,3.67
2022-10-01T22:36:30.568Z,2.70
2022-10-01T22:38:38.334Z,2.97
2022-10-01T22:42:52.592Z,2.78
2022-10-01T22:44:56.432Z,1.98
2022-10-01T22:47:22.058Z,1.80
2022-10-01T22:49:38.820Z,1.90
2022-10-01T22:51:52.676Z,1.90
2022-10-01T22:54:09.001Z,21.33
2022-10-01T22:56:17.367Z,3.40
2022-10-01T22:58:38.078Z,1.70
2022-10-01T23:00:50.091Z,1.95
2022-10-01T23:03:02.255Z,1.80
2022-10-01T23:05:18.535Z,2.30
2022-10-01T23:07:29.335Z,2.30
2022-10-01T23:09:36.299Z,3.08
2022-10-01T23:11:46.288Z,2.88
2022-10-01T23:13:56.333Z,2.85
2022-10-01T23:16:07.696Z,2.33
2022-10-01T23:18:17.779Z,2.22
2022-10-01T23:20:28.697Z,1.95
2022-10-01T23:22:47.616Z,2.33
2022-10-01T23:25:03.854Z,3.30
2022-10-01T23:27:18.258Z,2.28
2022-10-01T23:29:42.683Z,1.60
2022-10-01T23:31:54.076Z,1.80
2022-10-01T23:34:08.135Z,2.55
2022-10-01T23:36:20.503Z,2.13
2022-10-01T23:38:37.223Z,2.08
2022-10-01T23:40:41.161Z,1.80
2022-10-01T23:42:49.537Z,1.65
2022-10-01T23:45:01.945Z,1.85
2022-10-01T23:47:12.396Z,1.70
2022-10-01T23:49:16.121Z,1.77
2022-10-01T23:51:22.572Z,1.77
2022-10-01T23:53:30.570Z,1.80
2022-10-01T23:55:42.637Z,1.85
2022-10-01T23:57:44.904Z,2.03
2022-10-01T23:59:52.395Z,2.22
